Cherkasy, Ukraine
Current Conditions -  °F | °C
As of 7:00 PM on Wednesday 28 Jan 2015 (Local Time) from UKBB Reporting Station
Overcast Overcast  
Wind Chill: 22°   Ceiling: 100
Heat Index: 30°   Visibility: 5mi
Dew Point: 28°   Wind: 9mph
Humidity: 93%   Direction: 190°S
Pressure: 29.91"   Gusts: NA
Location:  49.43°N, 32.07°E
Report Text: UKBB 281600Z 19004MPS 8000 OVC0010 M01/M02 Q1013 88811050 NOSIG
Loading
Personal Weather Stations






























Interactive Weather Map New forecast layout! Learn more

10-Day Weather Forecast

Advertisements
Track Severe Weather on mobile